CheckWX is a tool to help pilots better visualize weather data.  It is not intended as a substitute for an official pre-flight weather briefing.

10:39:02 UTC

KSAT METAR
San Antonio International Airport
San Antonio, Texas, USA
Current

22 mins ago

KSAT 141017Z 36003KT 10SM BKN014 BKN050 22/14 A2997 RMK AO2 T02220144
Observed
Oct-14 @ 10:17 UTC
Wind
  • 360° at 3 KTS
Visibility
10 SM
Flight Rules
MVFR
Cloud Levels
  • Broken at 1,400' AGL
  • Broken at 5,000' AGL
Temperature
22°C / 72°F
Dewpoint
14°C / 57°F
Humidity
61%
Altimeter
29.97" Hg
Pressure
1014.92 hPa
Previous

48 mins ago

KSAT 140951Z 06003KT 10SM BKN017 BKN050 22/14 A2997 RMK AO2 SLP134 T02220144
Observed
Oct-14 @ 09:51 UTC
Wind
  • 060° at 3 KTS
Visibility
10 SM
Flight Rules
MVFR
Cloud Levels
  • Broken at 1,700' AGL
  • Broken at 5,000' AGL
Temperature
22°C / 72°F
Dewpoint
14°C / 57°F
Humidity
61%
Altimeter
29.97" Hg
Pressure
1014.92 hPa
Previous

2 hours ago

KSAT 140851Z 33003KT 10SM BKN027 22/14 A2999 RMK AO2 RAB26E35 SLP138 P0000 60000 T02170144 56005
Observed
Oct-14 @ 08:51 UTC
Wind
  • 330° at 3 KTS
Visibility
10 SM
Flight Rules
MVFR
Cloud Levels
  • Broken at 2,700' AGL
Temperature
22°C / 72°F
Dewpoint
14°C / 57°F
Humidity
61%
Altimeter
29.99" Hg
Pressure
1015.62 hPa
Current Rain
0.01"